Time;durP1;ratioP1;P1;durP2;ratioP2;P2;SDS_P1;SDS_P2;PMS_P1;PMS_P2;Temp;Humidity;BMP_temperature;BMP_pressure;BME280_temperature;BME280_humidity;BME280_pressure;Samples;Min_cycle;Max_cycle;Signal;HPM_P1;HPM_P2
2023/01/11 00:00:24;;;;;;;60.53;31.33;;;;;;;42.11;33.85;101196.59;4823394;29;20951;-86
2023/01/11 00:02:58;;;;;;;59.17;28.10;;;;;;;42.03;34.09;101194.72;4823521;29;20470;-82
2023/01/11 00:05:25;;;;;;;78.30;31.47;;;;;;;42.08;34.09;101189.09;4823422;29;20453;-78
2023/01/11 00:07:51;;;;;;;58.37;27.80;;;;;;;42.08;34.10;101186.38;4823334;29;20430;-86
2023/01/11 00:10:18;;;;;;;67.83;28.83;;;;;;;42.08;34.48;101189.88;4823330;29;20825;-82
2023/01/11 00:12:44;;;;;;;70.83;27.37;;;;;;;42.06;34.23;101188.63;4824036;29;21024;-81
2023/01/11 00:15:11;;;;;;;55.90;27.30;;;;;;;42.10;34.19;101192.28;4824636;29;20434;-86
2023/01/11 00:17:37;;;;;;;47.07;25.77;;;;;;;42.05;34.25;101182.38;4823161;29;20820;-86
2023/01/11 00:20:03;;;;;;;71.70;32.03;;;;;;;42.05;34.47;101189.72;4822678;29;20553;-82
2023/01/11 00:22:29;;;;;;;75.93;30.07;;;;;;;41.78;34.63;101180.06;4817804;29;21023;-83
2023/01/11 00:24:55;;;;;;;72.00;26.57;;;;;;;41.85;34.76;101183.88;4815744;29;20434;-86
2023/01/11 00:27:21;;;;;;;51.00;30.70;;;;;;;42.00;34.06;101182.56;4819703;29;20808;-87
2023/01/11 00:29:47;;;;;;;58.63;27.43;;;;;;;41.96;34.19;101178.09;4823151;29;20432;-83
2023/01/11 00:32:13;;;;;;;74.70;29.33;;;;;;;41.95;34.44;101177.28;4822466;29;20497;-83
2023/01/11 00:34:39;;;;;;;69.97;30.57;;;;;;;41.71;34.80;101180.53;4822788;29;20562;-86
2023/01/11 00:37:05;;;;;;;53.63;31.33;;;;;;;41.66;34.56;101180.72;4822843;29;20211;-82
2023/01/11 00:39:31;;;;;;;63.10;27.17;;;;;;;41.72;34.90;101173.97;4833529;29;20207;-86
2023/01/11 00:50:10;;;;;;;87.67;31.80;;;;;;;41.69;35.04;101171.91;4824096;29;20816;-83
2023/01/11 00:52:36;;;;;;;77.77;28.70;;;;;;;41.55;35.58;101168.56;4822720;29;20430;-82
2023/01/11 00:55:02;;;;;;;57.80;29.07;;;;;;;41.53;34.94;101159.94;4824111;29;20966;-85
2023/01/11 00:57:28;;;;;;;49.23;24.73;;;;;;;41.51;35.05;101160.25;4821792;29;20485;-82
2023/01/11 00:59:54;;;;;;;62.53;28.23;;;;;;;41.65;34.77;101161.97;4822073;29;20463;-78
2023/01/11 01:02:21;;;;;;;59.30;27.43;;;;;;;41.68;34.37;101159.41;4816638;29;20528;-81
2023/01/11 01:04:47;;;;;;;50.23;27.83;;;;;;;41.58;34.67;101163.28;4819243;29;20431;-81
2023/01/11 01:07:13;;;;;;;69.53;28.23;;;;;;;41.58;34.84;101163.28;4815745;29;20441;-80
2023/01/11 01:09:39;;;;;;;62.70;27.93;;;;;;;41.61;34.88;101157.16;4822592;29;20859;-85
2023/01/11 01:12:07;;;;;;;52.90;26.05;;;;;;;41.58;35.03;101159.75;4822593;29;20981;-86
2023/01/11 01:14:34;;;;;;;77.37;29.53;;;;;;;41.49;35.06;101162.47;4821333;29;20727;-78
2023/01/11 01:17:07;;;;;;;66.77;32.10;;;;;;;41.52;34.93;101161.84;4817331;29;20437;-79
2023/01/11 01:19:36;;;;;;;54.80;28.23;;;;;;;41.56;35.08;101159.28;4821933;29;20500;-78
2023/01/11 01:22:02;;;;;;;60.20;29.27;;;;;;;41.66;34.68;101158.91;4822631;29;20441;-83
2023/01/11 01:24:29;;;;;;;70.23;27.97;;;;;;;41.60;35.14;101160.22;4822807;29;20441;-81
2023/01/11 01:26:56;;;;;;;61.77;28.17;;;;;;;41.45;34.79;101153.38;4823891;29;20489;-83
2023/01/11 01:29:23;;;;;;;59.00;32.00;;;;;;;41.51;35.01;101154.00;4822007;29;20464;-78
2023/01/11 01:31:49;;;;;;;79.80;29.30;;;;;;;41.54;35.03;101154.16;4822199;29;20503;-83
2023/01/11 01:34:15;;;;;;;55.43;28.37;;;;;;;41.32;34.72;101159.78;4822782;29;20445;-78
2023/01/11 01:36:41;;;;;;;63.43;29.97;;;;;;;41.52;34.61;101159.13;4809896;29;20491;-79
2023/01/11 01:39:10;;;;;;;62.60;31.63;;;;;;;41.18;35.23;101159.94;4822028;29;20566;-81
2023/01/11 01:41:36;;;;;;;60.80;28.57;;;;;;;41.34;35.34;101169.25;4821806;29;20453;-81
2023/01/11 01:44:05;;;;;;;68.13;34.40;;;;;;;41.14;35.45;101169.09;4822093;29;20445;-85
2023/01/11 01:46:32;;;;;;;81.33;35.83;;;;;;;41.13;35.48;101164.75;4822107;29;20444;-86
2023/01/11 01:49:03;;;;;;;73.83;31.03;;;;;;;40.98;35.87;101160.59;4821870;29;20475;-86
2023/01/11 01:51:48;;;;;;;73.83;34.50;;;;;;;40.94;35.79;101154.19;4822451;29;20946;-85
2023/01/11 01:54:23;;;;;;;96.03;36.10;;;;;;;40.61;36.31;101149.19;4808243;29;20456;-82
2023/01/11 01:56:55;;;;;;;75.67;35.40;;;;;;;40.67;36.54;101149.84;4821754;29;20442;-79
2023/01/11 01:59:25;;;;;;;67.00;37.23;;;;;;;40.36;36.80;101155.34;4821652;29;20477;-78
2023/01/11 02:01:51;;;;;;;66.37;35.80;;;;;;;40.18;37.13;101149.88;4821784;29;20511;-82
2023/01/11 02:04:40;;;;;;;51.90;34.13;;;;;;;39.92;37.65;101149.75;4823196;29;20437;-81
2023/01/11 02:07:09;;;;;;;55.03;33.90;;;;;;;40.13;37.57;101160.88;4829658;29;20521;-81
2023/01/11 02:10:03;;;;;;;51.70;33.27;;;;;;;40.00;37.75;101159.84;4822139;29;20878;-85
2023/01/11 02:12:35;;;;;;;72.50;37.43;;;;;;;40.11;37.80;101160.41;4822908;29;20437;-80
2023/01/11 02:15:02;;;;;;;63.83;35.87;;;;;;;39.88;38.27;101161.53;4821776;29;20438;-78
2023/01/11 02:17:28;;;;;;;74.33;37.97;;;;;;;40.08;37.93;101152.06;4824632;29;20477;-82
2023/01/11 02:19:56;;;;;;;70.43;37.17;;;;;;;39.96;37.72;101160.78;4821776;29;20941;-78
2023/01/11 02:23:00;;;;;;;61.70;36.97;;;;;;;39.79;37.95;101152.56;4824616;29;20198;-78
2023/01/11 02:25:50;;;;;;;73.00;39.87;;;;;;;39.96;38.21;101152.63;4815710;29;20418;-82
2023/01/11 02:28:30;;;;;;;81.47;39.67;;;;;;;39.99;37.62;101152.00;4825353;29;20429;-83
2023/01/11 02:31:10;;;;;;;78.90;36.90;;;;;;;40.09;37.73;101143.63;4817275;29;20441;-86
2023/01/11 02:33:49;;;;;;;70.63;33.90;;;;;;;40.06;37.83;101149.66;4825052;29;20441;-83
2023/01/11 02:36:27;;;;;;;62.83;34.80;;;;;;;40.23;37.55;101148.94;4817803;29;20437;-83
2023/01/11 02:38:55;;;;;;;76.10;36.30;;;;;;;39.92;38.08;101146.25;4824276;29;20481;-78
2023/01/11 02:45:00;;;;;;;82.20;36.90;;;;;;;40.12;37.30;101145.69;4824922;29;20497;-79
2023/01/11 02:47:27;;;;;;;70.37;35.67;;;;;;;40.31;37.01;101142.72;4815537;29;20693;-79
2023/01/11 02:50:02;;;;;;;73.15;35.58;;;;;;;40.38;37.34;101142.25;4825051;29;20437;-77
2023/01/11 02:52:41;;;;;;;71.03;36.80;;;;;;;40.30;37.39;101141.13;4825118;29;20287;-81
2023/01/11 02:55:11;;;;;;;54.13;31.23;;;;;;;40.41;37.26;101136.19;4824610;29;20487;-82
2023/01/11 02:57:41;;;;;;;74.60;32.60;;;;;;;40.31;37.24;101141.91;4826252;29;20429;-82
2023/01/11 03:00:09;;;;;;;54.17;31.53;;;;;;;40.08;37.55;101143.91;4824541;29;20469;-81
2023/01/11 03:02:35;;;;;;;72.13;35.30;;;;;;;40.12;37.65;101147.63;4824481;29;20444;-81
2023/01/11 03:05:01;;;;;;;47.20;33.10;;;;;;;40.11;37.60;101148.72;4821817;29;20438;-81
2023/01/11 03:07:42;;;;;;;70.20;39.93;;;;;;;40.21;37.66;101154.69;4821532;29;20487;-81
2023/01/11 03:10:20;;;;;;;61.57;31.27;;;;;;;39.94;37.82;101154.88;4824680;29;20440;-82
2023/01/11 03:13:10;;;;;;;50.20;34.60;;;;;;;40.02;37.46;101152.19;4819449;29;20463;-81
2023/01/11 03:15:55;;;;;;;49.33;30.33;;;;;;;40.21;37.63;101151.19;4826535;29;20437;-81
2023/01/11 03:18:34;;;;;;;51.90;32.97;;;;;;;40.25;37.06;101144.78;4825919;29;20219;-81
2023/01/11 03:21:17;;;;;;;55.20;35.67;;;;;;;39.95;37.88;101137.44;4828715;29;20482;-81
2023/01/11 03:24:07;;;;;;;69.83;32.73;;;;;;;40.01;37.50;101145.13;4824355;29;20432;-80
2023/01/11 03:26:49;;;;;;;54.93;32.83;;;;;;;40.12;37.19;101137.53;4827030;29;20429;-81
2023/01/11 03:29:33;;;;;;;60.00;35.87;;;;;;;40.20;37.23;101152.25;4840809;29;20439;-81
2023/01/11 03:32:21;;;;;;;71.83;38.60;;;;;;;40.21;37.36;101145.75;4844594;29;20416;-81
2023/01/11 03:34:54;;;;;;;67.53;42.87;;;;;;;40.19;37.15;101158.81;4826896;29;20432;-82
2023/01/11 03:37:34;;;;;;;57.50;38.93;;;;;;;40.28;36.74;101155.03;4834818;29;20447;-81
2023/01/11 03:40:24;;;;;;;57.35;34.88;;;;;;;40.38;36.71;101158.56;4827686;29;20490;-77
2023/01/11 03:43:11;;;;;;;59.60;37.23;;;;;;;40.24;37.19;101148.59;4826911;29;20191;-77
2023/01/11 03:46:06;;;;;;;52.60;35.90;;;;;;;40.32;37.05;101155.19;4826957;29;20428;-77
2023/01/11 03:48:37;;;;;;;67.30;37.40;;;;;;;40.21;36.94;101162.84;4807236;29;20511;-79
2023/01/11 03:51:08;;;;;;;63.23;38.33;;;;;;;40.31;36.77;101160.94;4826592;29;20428;-78
2023/01/11 03:53:36;;;;;;;70.87;38.50;;;;;;;40.12;37.07;101158.47;4843154;29;20432;-79
2023/01/11 03:56:08;;;;;;;68.90;36.07;;;;;;;40.06;37.48;101159.75;4826066;29;20533;-79
2023/01/11 03:58:34;;;;;;;66.33;41.67;;;;;;;40.10;36.96;101160.72;4843049;29;20547;-79
2023/01/11 04:01:01;;;;;;;85.93;38.97;;;;;;;40.06;37.23;101163.25;4826208;29;20468;-78
2023/01/11 04:03:27;;;;;;;69.40;40.70;;;;;;;40.13;37.40;101165.50;4826555;29;20421;-78
2023/01/11 04:05:58;;;;;;;64.97;40.00;;;;;;;39.95;37.63;101170.03;4819089;29;20433;-81
2023/01/11 04:08:24;;;;;;;63.23;39.50;;;;;;;39.82;37.87;101169.03;4826801;29;20417;-81
2023/01/11 04:10:51;;;;;;;61.47;37.47;;;;;;;39.78;37.49;101178.09;4826342;29;20460;-77
2023/01/11 04:13:16;;;;;;;54.10;33.67;;;;;;;39.96;37.59;101177.06;4826463;29;20456;-79
2023/01/11 04:15:42;;;;;;;65.37;37.87;;;;;;;39.89;37.17;101177.53;4820705;29;20486;-78
2023/01/11 04:18:08;;;;;;;59.67;37.00;;;;;;;39.96;37.58;101179.78;4824775;29;20492;-81
2023/01/11 04:20:37;;;;;;;60.20;38.30;;;;;;;39.93;37.67;101180.44;4823007;29;20242;-78
2023/01/11 04:23:11;;;;;;;50.27;34.70;;;;;;;39.99;37.70;101185.41;4823436;29;20429;-81
2023/01/11 04:25:37;;;;;;;57.00;36.70;;;;;;;40.12;37.46;101175.59;4821030;29;20437;-78
2023/01/11 04:28:03;;;;;;;71.07;35.27;;;;;;;40.18;37.16;101182.47;4814848;29;20431;-77
2023/01/11 04:30:28;;;;;;;53.97;33.33;;;;;;;40.05;37.21;101190.75;4822963;29;20457;-80
2023/01/11 04:32:57;;;;;;;57.47;33.70;;;;;;;39.76;37.67;101179.22;4817111;29;20494;-77
2023/01/11 04:35:24;;;;;;;59.13;36.03;;;;;;;39.48;38.18;101185.91;4820633;29;20531;-76
2023/01/11 04:37:54;;;;;;;61.20;36.07;;;;;;;39.59;38.42;101198.09;4822896;29;20463;-81
2023/01/11 04:40:21;;;;;;;65.37;36.20;;;;;;;39.63;38.08;101199.13;4817673;29;20943;-82
2023/01/11 04:42:47;;;;;;;50.10;33.07;;;;;;;39.56;38.61;101206.06;4816955;29;20457;-78
2023/01/11 04:45:13;;;;;;;68.83;37.40;;;;;;;39.75;38.48;101201.25;4822714;29;20516;-77
2023/01/11 04:47:39;;;;;;;66.03;34.30;;;;;;;39.71;38.08;101211.94;4824505;29;20425;-82
2023/01/11 04:50:06;;;;;;;63.13;35.03;;;;;;;39.75;38.36;101212.13;4822838;29;20446;-82
2023/01/11 04:52:31;;;;;;;62.10;37.23;;;;;;;39.82;38.27;101211.69;4823073;29;20431;-78
2023/01/11 04:54:57;;;;;;;82.73;41.17;;;;;;;39.82;37.98;101214.41;4822957;29;20438;-81
2023/01/11 04:57:24;;;;;;;78.63;39.87;;;;;;;39.59;38.55;101214.38;4822930;29;20477;-79
2023/01/11 04:59:50;;;;;;;65.93;37.90;;;;;;;38.88;39.68;101211.41;4811345;29;20260;-81
2023/01/11 05:02:16;;;;;;;73.60;41.43;;;;;;;38.49;40.48;101219.22;4823848;29;20422;-81
2023/01/11 05:04:42;;;;;;;61.83;39.60;;;;;;;38.72;40.10;101212.81;4822703;29;20528;-81
2023/01/11 05:07:09;;;;;;;80.20;42.50;;;;;;;38.52;40.35;101211.31;4822819;29;20441;-81
2023/01/11 05:09:35;;;;;;;71.60;40.00;;;;;;;38.63;40.29;101210.00;4822484;29;20522;-80
2023/01/11 05:12:01;;;;;;;68.63;37.20;;;;;;;38.68;40.45;101217.22;4823787;29;20428;-81
2023/01/11 05:14:27;;;;;;;84.93;41.73;;;;;;;38.84;40.29;101215.00;4823970;29;20433;-78
2023/01/11 05:16:53;;;;;;;59.03;37.70;;;;;;;38.91;39.83;101205.34;4822550;29;20493;-81
2023/01/11 05:19:19;;;;;;;68.80;39.77;;;;;;;39.26;39.35;101208.41;4822516;29;20488;-81
2023/01/11 05:21:45;;;;;;;65.07;37.47;;;;;;;39.28;38.75;101217.03;4822633;29;20498;-81
2023/01/11 05:24:15;;;;;;;68.30;37.20;;;;;;;39.50;38.74;101211.63;4822670;29;20857;-82
2023/01/11 05:26:42;;;;;;;71.37;39.70;;;;;;;39.44;38.44;101215.56;4823971;29;20425;-80
2023/01/11 05:29:11;;;;;;;63.60;40.23;;;;;;;39.53;38.44;101212.91;4822393;29;20436;-82
2023/01/11 05:31:39;;;;;;;62.83;42.70;;;;;;;39.56;38.73;101214.22;4822363;29;21034;-81
2023/01/11 05:34:05;;;;;;;65.93;40.37;;;;;;;39.57;38.63;101211.19;4822469;29;20433;-81
2023/01/11 05:36:32;;;;;;;90.57;39.50;;;;;;;39.51;38.85;101209.72;4821800;29;20986;-78
2023/01/11 05:38:58;;;;;;;73.60;40.30;;;;;;;39.44;38.52;101220.19;4815231;29;20490;-78
2023/01/11 05:41:26;;;;;;;60.43;41.73;;;;;;;39.50;38.76;101217.06;4817888;29;21061;-78
2023/01/11 05:46:39;;;;;;;80.57;47.17;;;;;;;39.67;38.44;101224.56;4822397;29;20404;-79
2023/01/11 05:49:06;;;;;;;100.60;48.83;;;;;;;39.78;38.56;101227.00;4825085;29;20958;-78
2023/01/11 05:51:32;;;;;;;95.07;50.70;;;;;;;39.84;38.45;101228.47;4822082;29;20601;-78
2023/01/11 05:54:03;;;;;;;78.40;45.23;;;;;;;39.39;39.12;101231.97;4831043;29;21005;-77
2023/01/11 05:56:29;;;;;;;80.47;45.97;;;;;;;39.55;38.86;101234.34;4823328;29;20413;-77
2023/01/11 05:58:55;;;;;;;71.93;46.73;;;;;;;39.52;38.92;101238.44;4821818;29;20465;-77
2023/01/11 06:01:22;;;;;;;74.73;43.80;;;;;;;39.40;39.26;101236.28;4821576;29;20482;-76
2023/01/11 06:03:48;;;;;;;82.23;42.40;;;;;;;39.54;38.91;101235.44;4822216;29;20498;-75
2023/01/11 06:06:16;;;;;;;91.80;43.60;;;;;;;39.59;39.06;101241.53;4821703;29;20457;-75
2023/01/11 06:08:42;;;;;;;96.20;46.70;;;;;;;39.56;38.84;101241.38;4832190;29;20449;-74
2023/01/11 06:11:08;;;;;;;105.50;50.63;;;;;;;39.28;39.52;101240.66;4824338;29;20428;-72
2023/01/11 06:13:34;;;;;;;82.73;47.53;;;;;;;39.23;39.81;101241.59;4833078;29;20440;-75
2023/01/11 06:16:04;;;;;;;83.83;44.47;;;;;;;39.38;39.53;101246.66;4827914;29;20433;-75
2023/01/11 06:18:59;;;;;;;87.50;50.00;;;;;;;39.55;39.23;101253.34;4837859;29;20492;-75
2023/01/11 06:21:25;;;;;;;99.97;53.33;;;;;;;39.39;39.07;101244.75;4826296;29;20460;-76
2023/01/11 06:23:52;;;;;;;89.17;47.87;;;;;;;39.49;39.15;101258.09;4834908;29;20440;-76
2023/01/11 06:26:21;;;;;;;95.53;46.57;;;;;;;39.30;39.33;101263.69;4829823;29;21004;-75
2023/01/11 06:28:47;;;;;;;81.97;44.50;;;;;;;39.11;39.59;101258.38;4834220;29;20425;-74
2023/01/11 06:31:14;;;;;;;87.13;51.00;;;;;;;39.38;39.43;101265.66;4824195;29;20467;-76
2023/01/11 06:33:40;;;;;;;108.00;48.07;;;;;;;39.53;39.19;101267.19;4824360;29;20432;-72
2023/01/11 06:36:08;;;;;;;97.87;49.60;;;;;;;39.64;38.68;101279.47;4824603;29;20523;-75
2023/01/11 06:38:35;;;;;;;113.60;49.87;;;;;;;39.91;38.57;101283.19;4828458;29;20523;-73
2023/01/11 06:41:03;;;;;;;110.00;47.30;;;;;;;39.78;38.17;101287.56;4838915;29;20803;-73
2023/01/11 06:43:30;;;;;;;77.77;46.10;;;;;;;40.09;37.81;101286.84;4854702;29;20428;-72
2023/01/11 06:45:57;;;;;;;87.23;49.90;;;;;;;40.17;38.04;101289.59;4834328;29;20956;-72
2023/01/11 06:48:25;;;;;;;80.40;45.33;;;;;;;40.21;37.43;101306.09;4837161;29;20431;-72
2023/01/11 06:50:55;;;;;;;98.43;43.87;;;;;;;40.15;37.87;101299.19;4840688;29;20427;-72
2023/01/11 06:53:23;;;;;;;91.40;46.47;;;;;;;40.09;37.88;101303.13;4855805;29;20424;-72
2023/01/11 06:55:54;;;;;;;88.80;43.10;;;;;;;40.05;37.52;101313.00;4844884;29;20458;-72
2023/01/11 06:58:22;;;;;;;106.28;47.83;;;;;;;40.09;37.53;101319.44;4822323;29;20558;-71
2023/01/11 07:00:50;;;;;;;101.93;52.03;;;;;;;40.02;37.96;101322.53;4839565;29;20752;-72
2023/01/11 07:03:15;;;;;;;115.27;49.93;;;;;;;39.90;37.89;101323.13;4841462;29;20531;-72
2023/01/11 07:05:43;;;;;;;102.80;49.70;;;;;;;40.05;37.74;101334.75;4825705;29;20530;-74
2023/01/11 07:08:09;;;;;;;103.77;51.90;;;;;;;39.90;37.66;101336.72;4846014;29;20938;-72
2023/01/11 07:10:35;;;;;;;84.73;48.93;;;;;;;39.95;38.05;101331.13;4826289;29;20476;-72
2023/01/11 07:13:01;;;;;;;72.27;42.63;;;;;;;40.03;37.55;101335.84;4843942;29;20818;-72
2023/01/11 07:15:27;;;;;;;92.90;44.97;;;;;;;39.91;37.94;101340.22;4844244;29;20428;-72
2023/01/11 07:17:55;;;;;;;64.10;42.10;;;;;;;39.83;38.09;101344.47;4837472;29;20458;-73
2023/01/11 07:20:22;;;;;;;91.67;43.37;;;;;;;39.58;38.46;101343.09;4860374;29;20495;-72
2023/01/11 07:22:48;;;;;;;81.83;37.90;;;;;;;39.64;37.88;101352.78;4841944;29;20431;-73
2023/01/11 07:25:14;;;;;;;75.10;40.43;;;;;;;39.58;38.55;101351.25;4839822;29;20436;-72
2023/01/11 07:27:40;;;;;;;76.23;43.07;;;;;;;39.59;38.50;101355.56;4857143;29;20428;-75
2023/01/11 07:30:07;;;;;;;82.13;41.50;;;;;;;39.46;38.47;101357.22;4841837;29;20854;-72
2023/01/11 07:32:34;;;;;;;81.47;43.87;;;;;;;39.78;38.02;101369.06;4842230;29;20427;-74
2023/01/11 07:35:00;;;;;;;69.90;44.40;;;;;;;39.83;37.80;101377.06;4843962;29;20463;-73
2023/01/11 07:37:26;;;;;;;66.07;39.40;;;;;;;39.98;37.53;101373.19;4842570;29;20470;-73
2023/01/11 07:39:53;;;;;;;70.70;40.87;;;;;;;40.23;37.35;101383.47;4832541;29;20496;-72
2023/01/11 07:45:04;;;;;;;92.80;40.60;;;;;;;39.71;38.07;101385.75;4847790;29;20507;-72
2023/01/11 07:47:30;;;;;;;108.47;45.60;;;;;;;39.50;38.57;101392.72;4842592;29;20865;-72
2023/01/11 07:49:56;;;;;;;89.70;45.00;;;;;;;39.54;38.67;101398.34;4842620;29;20436;-72
2023/01/11 07:52:22;;;;;;;62.07;38.00;;;;;;;39.61;38.13;101398.75;4842403;29;20514;-72
2023/01/11 07:54:48;;;;;;;80.73;42.67;;;;;;;39.42;38.18;101399.66;4840548;29;20455;-80
2023/01/11 07:57:14;;;;;;;59.47;39.77;;;;;;;39.39;38.46;101400.25;4841655;29;20439;-77
2023/01/11 07:59:40;;;;;;;98.50;46.33;;;;;;;39.40;38.90;101410.00;4839533;29;20475;-76
2023/01/11 08:02:06;;;;;;;95.07;43.87;;;;;;;39.69;38.20;101415.13;4840863;29;20187;-73
2023/01/11 08:04:32;;;;;;;70.07;39.60;;;;;;;39.73;37.85;101420.75;4840593;29;20444;-73
2023/01/11 08:06:57;;;;;;;73.90;44.90;;;;;;;39.64;38.46;101419.84;4843182;29;20442;-73
2023/01/11 08:09:23;;;;;;;98.00;44.67;;;;;;;39.32;38.50;101418.88;4842865;29;20179;-75
2023/01/11 08:14:40;;;;;;;78.73;38.83;;;;;;;39.37;38.32;101418.78;4857482;29;20977;-72
2023/01/11 08:17:08;;;;;;;80.87;39.83;;;;;;;39.51;38.34;101429.59;4841832;29;20757;-73
2023/01/11 08:19:34;;;;;;;78.00;41.83;;;;;;;39.55;38.19;101432.53;4838768;29;20511;-73
2023/01/11 08:22:00;;;;;;;89.53;38.23;;;;;;;39.01;38.94;101425.97;4841166;29;20957;-73
2023/01/11 08:24:26;;;;;;;71.13;40.30;;;;;;;38.87;39.33;101431.41;4839746;29;20434;-73
2023/01/11 08:26:52;;;;;;;70.77;34.30;;;;;;;38.86;39.44;101429.78;4835660;29;20455;-73
2023/01/11 08:29:18;;;;;;;72.67;38.73;;;;;;;39.37;38.44;101426.13;4825301;29;20444;-76
2023/01/11 08:31:45;;;;;;;60.57;35.70;;;;;;;39.46;38.22;101425.09;4821586;29;20429;-73
2023/01/11 08:34:11;;;;;;;52.93;33.70;;;;;;;39.61;38.33;101428.63;4825227;29;20441;-75
2023/01/11 08:36:37;;;;;;;58.73;34.40;;;;;;;39.39;37.97;101421.97;4831248;29;20501;-75
2023/01/11 08:39:03;;;;;;;58.30;32.00;;;;;;;39.75;37.97;101419.34;4829610;29;20528;-74
2023/01/11 08:41:31;;;;;;;68.93;38.47;;;;;;;39.94;37.56;101423.81;4830849;29;20439;-74
2023/01/11 08:43:57;;;;;;;74.80;40.30;;;;;;;39.93;37.39;101420.28;4850200;29;20441;-73
2023/01/11 08:46:23;;;;;;;72.90;38.63;;;;;;;40.20;36.21;101416.69;4823946;29;20540;-74
2023/01/11 08:48:49;;;;;;;88.47;41.33;;;;;;;40.30;36.34;101415.66;4824257;29;20520;-73
2023/01/11 08:51:17;;;;;;;49.50;31.23;;;;;;;40.20;36.59;101411.25;4824297;29;20447;-76
2023/01/11 08:53:42;;;;;;;56.43;35.37;;;;;;;40.14;36.44;101398.09;4825596;29;20460;-76
2023/01/11 08:56:08;;;;;;;62.00;35.37;;;;;;;40.19;36.40;101404.22;4825551;29;20496;-73
2023/01/11 08:58:35;;;;;;;72.60;33.07;;;;;;;39.78;36.71;101408.97;4840666;29;20565;-73
2023/01/11 09:01:02;;;;;;;70.93;35.57;;;;;;;39.84;36.77;101396.88;4823493;29;20440;-74
2023/01/11 09:03:29;;;;;;;83.47;40.40;;;;;;;39.79;36.96;101403.25;4824063;29;20464;-76
2023/01/11 09:05:56;;;;;;;80.47;39.63;;;;;;;40.26;36.57;101384.75;4823666;29;21101;-74
2023/01/11 09:08:23;;;;;;;67.67;38.70;;;;;;;40.25;36.75;101394.03;4823877;29;20460;-74
2023/01/11 09:10:49;;;;;;;83.23;38.90;;;;;;;39.89;37.06;101402.19;4818728;29;20441;-75
2023/01/11 09:13:15;;;;;;;75.73;40.77;;;;;;;40.11;36.66;101391.38;4824835;29;20444;-78
2023/01/11 09:15:45;;;;;;;87.20;40.03;;;;;;;40.35;35.88;101398.41;4825518;29;20444;-77
2023/01/11 09:18:14;;;;;;;51.00;35.90;;;;;;;40.19;35.92;101393.34;4822851;29;20477;-75
2023/01/11 09:20:40;;;;;;;86.10;42.10;;;;;;;40.07;36.43;101389.56;4823511;29;20472;-81
2023/01/11 09:23:06;;;;;;;77.77;42.10;;;;;;;39.70;37.38;101386.06;4824978;29;20456;-83
2023/01/11 09:25:32;;;;;;;51.87;34.47;;;;;;;40.10;36.27;101384.34;4825077;29;20460;-89
2023/01/11 09:27:58;;;;;;;66.37;36.00;;;;;;;40.50;35.86;101389.88;4825668;29;20950;-85
2023/01/11 09:30:24;;;;;;;69.83;31.27;;;;;;;40.33;35.28;101378.88;4823768;29;20524;-83
2023/01/11 09:32:51;;;;;;;69.90;35.83;;;;;;;40.25;35.53;101381.22;4825435;29;20531;-83
2023/01/11 09:35:18;;;;;;;84.73;36.17;;;;;;;39.99;36.61;101382.94;4824596;29;20468;-78
2023/01/11 09:37:53;;;;;;;91.40;40.20;;;;;;;39.83;36.45;101384.41;4825125;29;20899;-79
2023/01/11 09:40:44;;;;;;;103.07;37.73;;;;;;;40.00;36.66;101379.09;4825031;29;20464;-83
2023/01/11 09:43:16;;;;;;;70.40;36.90;;;;;;;39.72;37.04;101381.13;4824877;29;20930;-82
2023/01/11 09:45:45;;;;;;;87.50;38.13;;;;;;;40.06;36.30;101379.81;4821813;29;20829;-76
2023/01/11 09:48:34;;;;;;;67.73;36.00;;;;;;;39.97;36.29;101377.03;4825072;29;20443;-84
2023/01/11 09:51:01;;;;;;;87.73;38.17;;;;;;;40.24;36.13;101374.19;4825545;29;20420;-82
2023/01/11 09:53:33;;;;;;;75.47;37.33;;;;;;;40.48;35.67;101384.75;4835943;29;20973;-81
2023/01/11 09:56:02;;;;;;;71.10;35.97;;;;;;;40.39;35.42;101388.50;4825094;29;20439;-77
2023/01/11 09:58:54;;;;;;;67.83;37.10;;;;;;;40.57;35.45;101384.78;4841161;29;20468;-76
2023/01/11 10:01:36;;;;;;;57.03;33.03;;;;;;;40.73;34.81;101377.03;4805819;29;20523;-79
2023/01/11 10:04:40;;;;;;;81.60;36.30;;;;;;;40.46;35.50;101378.00;4825160;29;20511;-82
2023/01/11 10:07:17;;;;;;;66.80;34.57;;;;;;;40.73;34.92;101363.44;4826788;29;20429;-76
2023/01/11 10:09:57;;;;;;;72.53;35.93;;;;;;;40.71;34.66;101361.03;4825354;29;20953;-80
2023/01/11 10:12:42;;;;;;;83.70;36.50;;;;;;;40.92;34.35;101357.78;4839468;29;20964;-79
2023/01/11 10:15:26;;;;;;;66.17;33.97;;;;;;;41.10;34.25;101351.25;4824700;29;20429;-75
2023/01/11 10:17:55;;;;;;;63.90;35.00;;;;;;;41.13;33.99;101344.38;4824852;29;20457;-80
2023/01/11 10:20:46;;;;;;;85.40;37.73;;;;;;;40.95;34.53;101352.53;4810001;29;20542;-80
2023/01/11 10:23:53;;;;;;;63.17;33.47;;;;;;;41.17;34.32;101345.34;4821468;29;20456;-80
2023/01/11 10:26:31;;;;;;;73.47;36.23;;;;;;;41.02;33.82;101343.91;4756081;30;20468;-81
2023/01/11 10:42:53;;;;;;;64.33;35.33;;;;;;;41.45;33.25;101310.50;4821795;29;20527;-74
2023/01/11 10:45:26;;;;;;;53.10;30.50;;;;;;;41.18;32.88;101306.91;4813936;29;21037;-75
2023/01/11 10:48:33;;;;;;;65.97;33.23;;;;;;;40.98;32.88;101312.97;4825834;29;20436;-75
2023/01/11 10:51:04;;;;;;;64.90;35.27;;;;;;;40.90;32.44;101298.25;4817044;29;20854;-74
2023/01/11 10:54:07;;;;;;;60.53;31.40;;;;;;;40.91;32.94;101307.22;4824881;29;20455;-74
2023/01/11 10:56:51;;;;;;;57.53;32.37;;;;;;;41.28;32.31;101301.19;4825918;29;20443;-75
2023/01/11 10:59:33;;;;;;;69.67;34.30;;;;;;;41.40;32.01;101297.06;4824293;29;20495;-75
2023/01/11 11:02:18;;;;;;;90.10;34.13;;;;;;;41.50;33.03;101294.03;4814619;29;20849;-74
2023/01/11 11:05:00;;;;;;;62.93;32.40;;;;;;;41.77;33.14;101288.25;4824377;29;20448;-75
2023/01/11 11:07:45;;;;;;;63.67;36.40;;;;;;;41.72;34.12;101288.38;4824425;29;20430;-75
2023/01/11 11:10:21;;;;;;;73.87;33.90;;;;;;;41.93;33.81;101279.53;4821601;29;20453;-75
2023/01/11 11:13:01;;;;;;;80.40;35.53;;;;;;;42.16;33.11;101288.31;4825727;29;20432;-75
2023/01/11 11:16:13;;;;;;;74.30;35.37;;;;;;;41.78;33.85;101280.88;4824424;29;20513;-75
2023/01/11 11:18:41;;;;;;;78.23;36.20;;;;;;;41.82;33.68;101276.38;4810449;29;20496;-75
2023/01/11 11:21:29;;;;;;;57.83;28.93;;;;;;;41.92;33.67;101272.50;4837473;29;20437;-75
2023/01/11 11:24:07;;;;;;;45.10;33.10;;;;;;;42.17;33.61;101260.75;4820910;29;20437;-75
2023/01/11 11:26:45;;;;;;;58.43;34.27;;;;;;;42.19;33.58;101253.06;4824154;29;20485;-74
2023/01/11 11:29:28;;;;;;;66.07;34.67;;;;;;;42.19;33.43;101254.97;4815410;29;20429;-76
2023/01/11 11:31:55;;;;;;;51.43;31.00;;;;;;;42.08;33.34;101252.56;4823875;29;20433;-72
2023/01/11 11:34:26;;;;;;;68.50;29.90;;;;;;;42.25;33.01;101246.28;4823983;29;20429;-72
2023/01/11 11:36:54;;;;;;;67.87;34.17;;;;;;;42.30;33.61;101248.03;4824123;29;20514;-72
2023/01/11 11:39:29;;;;;;;65.13;31.47;;;;;;;42.36;33.22;101241.28;4824871;29;20472;-72
2023/01/11 11:42:06;;;;;;;65.53;34.33;;;;;;;41.97;33.45;101234.97;4823683;29;20441;-72
2023/01/11 11:44:34;;;;;;;76.87;31.80;;;;;;;42.38;32.64;101234.34;4823991;29;20520;-74
2023/01/11 11:47:03;;;;;;;64.67;30.43;;;;;;;42.24;32.97;101225.63;4823186;29;20463;-75
2023/01/11 11:49:30;;;;;;;60.07;28.43;;;;;;;42.22;33.03;101216.94;4823567;29;20422;-73
2023/01/11 11:51:59;;;;;;;55.70;28.97;;;;;;;42.37;32.71;101223.78;4829175;29;20433;-75
2023/01/11 11:54:33;;;;;;;70.30;31.17;;;;;;;42.50;32.87;101211.84;4823599;29;20434;-74
2023/01/11 11:57:12;;;;;;;58.17;28.27;;;;;;;42.60;32.57;101218.84;4812308;29;20967;-73
2023/01/11 11:59:43;;;;;;;58.07;29.87;;;;;;;42.50;32.72;101214.56;4811475;29;20579;-72